Time;durP1;ratioP1;P1;durP2;ratioP2;P2;SDS_P1;SDS_P2;PMS_P1;PMS_P2;Temp;Humidity;BMP_temperature;BMP_pressure;BME280_temperature;BME280_humidity;BME280_pressure;Samples;Min_cycle;Max_cycle;Signal;HPM_P1;HPM_P2
2023/07/05 00:01:40;;;;;;;96.60;2.47;;;23.30;29.50;;;;;;4972783;28;20174;-74
2023/07/05 00:04:05;;;;;;;96.53;2.70;;;23.20;29.40;;;;;;4972649;28;20178;-73
2023/07/05 00:06:31;;;;;;;96.20;2.33;;;23.20;29.40;;;;;;4972371;28;20598;-73
2023/07/05 00:08:57;;;;;;;96.77;2.50;;;23.30;28.80;;;;;;4972491;28;20194;-74
2023/07/05 00:11:23;;;;;;;96.10;2.40;;;23.40;29.50;;;;;;4972432;28;20185;-74
2023/07/05 00:13:48;;;;;;;95.80;2.50;;;23.20;29.50;;;;;;4972152;28;20465;-74
2023/07/05 00:16:14;;;;;;;96.37;2.70;;;23.10;29.70;;;;;;4971378;28;20482;-73
2023/07/05 00:18:39;;;;;;;96.20;2.50;;;23.00;29.30;;;;;;4972282;28;20198;-73
2023/07/05 00:21:08;;;;;;;96.17;2.50;;;23.20;29.40;;;;;;4955215;28;20689;-73
2023/07/05 00:23:35;;;;;;;96.23;2.40;;;23.50;28.80;;;;;;4955092;28;20175;-73
2023/07/05 00:26:06;;;;;;;95.50;2.17;;;23.70;28.60;;;;;;4971446;28;20453;-74
2023/07/05 00:28:35;;;;;;;96.10;2.50;;;23.60;28.50;;;;;;4972100;28;20411;-74
2023/07/05 00:31:04;;;;;;;96.20;2.47;;;23.50;28.90;;;;;;4972084;28;20505;-74
2023/07/05 00:33:33;;;;;;;96.17;2.47;;;23.60;28.70;;;;;;4972446;28;20414;-74
2023/07/05 00:35:59;;;;;;;96.37;2.67;;;23.70;29.40;;;;;;4971923;28;20458;-74
2023/07/05 00:38:24;;;;;;;95.90;2.30;;;23.60;29.50;;;;;;4972165;28;20416;-73
2023/07/05 00:40:51;;;;;;;95.90;2.30;;;23.30;29.50;;;;;;4972352;28;20210;-74
2023/07/05 00:43:17;;;;;;;96.07;2.33;;;23.30;29.70;;;;;;4972238;28;20665;-73
2023/07/05 00:45:56;;;;;;;96.10;2.50;;;22.80;30.60;;;;;;4972108;28;20419;-74
2023/07/05 00:48:32;;;;;;;96.77;2.70;;;23.20;30.00;;;;;;4971784;28;20396;-75
2023/07/05 00:51:00;;;;;;;96.00;2.50;;;23.10;30.00;;;;;;4954557;28;20411;-74
2023/07/05 00:53:28;;;;;;;95.90;2.40;;;23.10;29.80;;;;;;4971799;28;20870;-74
2023/07/05 00:56:01;;;;;;;96.03;2.60;;;23.00;30.40;;;;;;4970378;28;20459;-74
2023/07/05 00:58:27;;;;;;;95.87;2.30;;;23.00;30.70;;;;;;4971578;28;20766;-74
2023/07/05 01:00:53;;;;;;;96.30;2.70;;;23.10;30.10;;;;;;4974528;28;20414;-73
2023/07/05 01:03:21;;;;;;;95.90;2.40;;;23.30;30.10;;;;;;4975277;28;20604;-74
2023/07/05 01:05:51;;;;;;;96.73;2.87;;;23.30;30.00;;;;;;4974716;28;20424;-74
2023/07/05 01:08:16;;;;;;;95.97;2.40;;;23.30;30.00;;;;;;4975710;28;20930;-74
2023/07/05 01:10:48;;;;;;;95.87;2.37;;;23.10;29.90;;;;;;4975484;28;20439;-73
2023/07/05 01:13:30;;;;;;;96.20;2.70;;;22.90;30.40;;;;;;4975469;28;20164;-73
2023/07/05 01:16:11;;;;;;;95.70;2.30;;;22.60;31.10;;;;;;4974246;28;20477;-73
2023/07/05 01:18:45;;;;;;;95.80;2.33;;;22.50;31.90;;;;;;4975353;28;20403;-73
2023/07/05 01:21:18;;;;;;;95.80;2.40;;;23.10;31.30;;;;;;4974676;28;20897;-73
2023/07/05 01:24:22;;;;;;;96.40;2.70;;;23.40;30.80;;;;;;4975310;28;20417;-74
2023/07/05 01:27:07;;;;;;;95.97;2.50;;;23.20;31.30;;;;;;4974689;28;20491;-73
2023/07/05 01:29:41;;;;;;;97.30;2.50;;;23.20;31.30;;;;;;4974779;28;20431;-73
2023/07/05 01:32:19;;;;;;;95.97;2.40;;;23.50;31.00;;;;;;4956566;28;20513;-73
2023/07/05 01:34:49;;;;;;;95.77;2.40;;;23.20;31.80;;;;;;4974188;28;20497;-73
2023/07/05 01:37:33;;;;;;;95.97;2.50;;;23.10;32.10;;;;;;4974206;28;20466;-74
2023/07/05 01:39:58;;;;;;;96.10;2.50;;;22.70;33.00;;;;;;4956837;28;20466;-73
2023/07/05 01:42:29;;;;;;;96.37;2.67;;;22.60;33.00;;;;;;4956772;28;20436;-73
2023/07/05 01:44:55;;;;;;;98.70;3.00;;;22.50;33.70;;;;;;4974462;28;20157;-73
2023/07/05 01:47:38;;;;;;;95.87;2.50;;;22.70;33.40;;;;;;4975021;28;20411;-73
2023/07/05 01:50:21;;;;;;;97.50;2.63;;;22.40;34.20;;;;;;4974216;28;20544;-74
2023/07/05 01:53:11;;;;;;;96.07;2.43;;;22.60;33.50;;;;;;4957133;28;20419;-74
2023/07/05 01:55:47;;;;;;;96.20;2.53;;;22.50;33.20;;;;;;4960703;28;20474;-73
2023/07/05 01:58:22;;;;;;;96.07;2.30;;;22.00;35.20;;;;;;4974587;28;20508;-74
2023/07/05 02:00:50;;;;;;;95.70;2.30;;;22.40;34.50;;;;;;4974549;28;20460;-72
2023/07/05 02:03:20;;;;;;;97.30;3.00;;;22.60;33.90;;;;;;4974619;28;20924;-73
2023/07/05 02:05:47;;;;;;;96.70;2.63;;;22.30;34.30;;;;;;4974343;28;20955;-73
2023/07/05 02:08:13;;;;;;;96.37;2.63;;;22.40;34.30;;;;;;4974449;28;20416;-73
2023/07/05 02:10:39;;;;;;;96.37;2.50;;;22.80;33.20;;;;;;4973133;28;20462;-73
2023/07/05 02:13:07;;;;;;;96.37;2.63;;;22.90;32.40;;;;;;4973965;28;20423;-73
2023/07/05 02:15:35;;;;;;;96.10;2.30;;;22.20;34.90;;;;;;4974176;28;20453;-73
2023/07/05 02:18:01;;;;;;;96.50;2.57;;;21.70;37.00;;;;;;4974125;28;20418;-74
2023/07/05 02:20:27;;;;;;;96.77;2.77;;;21.90;38.10;;;;;;4974996;28;20434;-74
2023/07/05 02:22:53;;;;;;;96.77;2.50;;;21.50;38.70;;;;;;4974656;28;20406;-74
2023/07/05 02:25:19;;;;;;;96.47;2.30;;;21.00;40.60;;;;;;4974791;28;21024;-72
2023/07/05 02:27:45;;;;;;;96.57;2.43;;;20.50;42.10;;;;;;4974475;28;20260;-73
2023/07/05 02:30:13;;;;;;;96.67;2.40;;;20.30;43.40;;;;;;4974097;28;20545;-73
2023/07/05 02:32:39;;;;;;;97.33;2.77;;;20.60;42.50;;;;;;4973662;28;20185;-73
2023/07/05 02:35:05;;;;;;;97.47;2.60;;;20.80;42.30;;;;;;4973809;28;20623;-73
2023/07/05 02:37:32;;;;;;;97.40;2.60;;;21.20;41.20;;;;;;4973573;28;20412;-74
2023/07/05 02:39:58;;;;;;;97.67;2.80;;;21.50;40.10;;;;;;4973181;28;20456;-73
2023/07/05 02:42:24;;;;;;;97.20;2.43;;;21.90;39.10;;;;;;4973751;28;20417;-73
2023/07/05 02:44:51;;;;;;;97.83;2.90;;;22.20;38.70;;;;;;4973385;28;20221;-73
2023/07/05 02:47:18;;;;;;;97.00;2.33;;;22.00;38.20;;;;;;4973965;28;20772;-73
2023/07/05 02:49:44;;;;;;;97.07;2.40;;;20.60;42.80;;;;;;4973482;28;20439;-73
2023/07/05 02:52:10;;;;;;;97.37;2.50;;;19.90;47.80;;;;;;4973756;28;20429;-73
2023/07/05 02:54:35;;;;;;;97.20;2.50;;;20.00;48.70;;;;;;4973477;28;20473;-72
2023/07/05 02:57:02;;;;;;;97.40;2.43;;;19.50;50.20;;;;;;4955991;28;20204;-72
2023/07/05 02:59:28;;;;;;;97.80;2.60;;;20.20;47.90;;;;;;4973711;28;20660;-74
2023/07/05 03:01:53;;;;;;;97.80;2.57;;;21.10;43.20;;;;;;4973280;28;20420;-73
2023/07/05 03:04:19;;;;;;;97.73;2.50;;;21.40;45.00;;;;;;4973465;28;20266;-74
2023/07/05 03:06:44;;;;;;;98.10;2.80;;;21.60;44.10;;;;;;4973731;28;20178;-73
2023/07/05 03:09:11;;;;;;;98.17;2.60;;;21.60;48.50;;;;;;4973239;28;20206;-73
2023/07/05 03:11:36;;;;;;;98.20;2.40;;;21.70;48.30;;;;;;4973528;28;20232;-74
2023/07/05 03:14:02;;;;;;;98.00;2.33;;;21.70;46.90;;;;;;4973363;28;20415;-73
2023/07/05 03:16:27;;;;;;;98.57;2.60;;;21.80;47.60;;;;;;4972813;28;20203;-73
2023/07/05 03:18:53;;;;;;;98.50;2.40;;;21.70;49.00;;;;;;4973251;28;20242;-74
2023/07/05 03:21:18;;;;;;;98.77;2.60;;;21.70;49.90;;;;;;4973376;28;20168;-73
2023/07/05 03:23:44;;;;;;;99.10;2.67;;;21.60;50.00;;;;;;4972647;28;20230;-73
2023/07/05 03:26:09;;;;;;;103.40;2.67;;;21.70;50.70;;;;;;4972257;28;20186;-74
2023/07/05 03:28:36;;;;;;;99.60;2.83;;;21.60;51.20;;;;;;4972743;28;20216;-74
2023/07/05 03:31:05;;;;;;;99.60;2.83;;;21.70;50.90;;;;;;4972936;28;20719;-74
2023/07/05 03:33:32;;;;;;;99.53;2.80;;;21.70;50.80;;;;;;4972849;28;20438;-73
2023/07/05 03:36:00;;;;;;;99.90;2.83;;;21.60;51.50;;;;;;4972511;28;20465;-74
2023/07/05 03:38:27;;;;;;;99.77;2.50;;;21.60;52.40;;;;;;4972599;28;20466;-74
2023/07/05 03:41:01;;;;;;;99.80;2.40;;;21.80;52.90;;;;;;4972470;28;20908;-74
2023/07/05 03:43:28;;;;;;;102.30;2.83;;;21.90;51.60;;;;;;4972871;28;20796;-74
2023/07/05 03:45:54;;;;;;;100.00;2.67;;;22.00;50.90;;;;;;4972159;28;20415;-73
2023/07/05 03:48:21;;;;;;;100.10;2.47;;;22.00;51.00;;;;;;4971933;28;20843;-74
2023/07/05 03:50:47;;;;;;;100.47;2.83;;;22.00;50.60;;;;;;4972614;28;20245;-73
2023/07/05 03:53:12;;;;;;;100.60;2.90;;;22.00;51.60;;;;;;4972727;28;20828;-73
2023/07/05 03:55:38;;;;;;;100.47;2.77;;;22.00;51.30;;;;;;4972284;28;20240;-74
2023/07/05 03:58:03;;;;;;;100.33;2.50;;;22.00;50.90;;;;;;4972623;28;20171;-74
2023/07/05 04:00:29;;;;;;;100.87;2.77;;;22.00;50.90;;;;;;4972352;28;20204;-73
2023/07/05 04:02:55;;;;;;;100.77;2.73;;;22.00;51.70;;;;;;4972415;28;20202;-73
2023/07/05 04:05:22;;;;;;;101.20;2.87;;;22.30;51.80;;;;;;4972296;28;20179;-73
2023/07/05 04:07:47;;;;;;;100.80;2.57;;;22.10;51.10;;;;;;4972625;28;20260;-73
2023/07/05 04:10:13;;;;;;;100.63;2.37;;;22.10;51.10;;;;;;4972292;28;21011;-74
2023/07/05 04:12:38;;;;;;;101.30;2.50;;;22.10;51.10;;;;;;4972605;28;20553;-73
2023/07/05 04:15:04;;;;;;;101.00;2.57;;;21.90;50.60;;;;;;4972210;28;20255;-73
2023/07/05 04:17:30;;;;;;;101.00;2.50;;;21.80;51.00;;;;;;4972131;28;20260;-74
2023/07/05 04:19:56;;;;;;;101.00;2.53;;;21.70;50.90;;;;;;4971726;28;20433;-73
2023/07/05 04:22:21;;;;;;;101.07;2.50;;;21.70;50.90;;;;;;4954899;28;20977;-74
2023/07/05 04:24:47;;;;;;;101.40;2.63;;;21.70;50.70;;;;;;4972011;28;20166;-73
2023/07/05 04:27:14;;;;;;;101.40;2.70;;;21.90;51.10;;;;;;4972028;28;20203;-74
2023/07/05 04:29:39;;;;;;;101.37;2.50;;;22.00;51.20;;;;;;4972324;28;20207;-74
2023/07/05 04:32:06;;;;;;;101.57;2.60;;;22.00;52.00;;;;;;4972297;28;20422;-73
2023/07/05 04:34:32;;;;;;;101.53;2.57;;;22.00;50.90;;;;;;4973463;28;20264;-74
2023/07/05 04:36:58;;;;;;;101.87;2.73;;;22.10;52.20;;;;;;4975969;28;20606;-73
2023/07/05 04:39:23;;;;;;;102.57;3.10;;;21.90;47.60;;;;;;4975661;28;20483;-74
2023/07/05 04:41:49;;;;;;;102.00;2.70;;;21.80;48.70;;;;;;4976170;28;20238;-73
2023/07/05 04:44:14;;;;;;;102.20;2.93;;;21.80;52.30;;;;;;4975987;28;20173;-73
2023/07/05 04:46:40;;;;;;;101.77;2.40;;;21.90;53.10;;;;;;4975357;28;20719;-73
2023/07/05 04:49:06;;;;;;;102.27;2.70;;;21.90;48.70;;;;;;4958027;28;20201;-74
2023/07/05 04:51:32;;;;;;;102.20;2.70;;;22.10;51.50;;;;;;4974982;28;20180;-73
2023/07/05 04:53:58;;;;;;;102.40;2.83;;;22.20;51.10;;;;;;4974827;28;20262;-73
2023/07/05 04:56:24;;;;;;;102.13;2.60;;;22.10;50.10;;;;;;4975743;28;20887;-73
2023/07/05 04:58:49;;;;;;;102.10;2.50;;;22.20;50.50;;;;;;4975347;28;20282;-74
2023/07/05 05:01:15;;;;;;;102.40;2.80;;;22.20;50.30;;;;;;4975329;28;20650;-74
2023/07/05 05:03:41;;;;;;;102.30;2.57;;;22.20;49.70;;;;;;4975199;28;20291;-74
2023/07/05 05:06:07;;;;;;;102.77;2.97;;;22.20;49.50;;;;;;4975140;28;20913;-73
2023/07/05 05:08:33;;;;;;;103.27;3.30;;;22.20;49.10;;;;;;4975371;28;20202;-73
2023/07/05 05:11:00;;;;;;;102.37;2.50;;;22.20;49.80;;;;;;4975193;28;20185;-73
2023/07/05 05:13:27;;;;;;;102.27;2.40;;;22.20;50.00;;;;;;4975182;28;20426;-73
2023/07/05 05:15:54;;;;;;;102.63;2.83;;;22.20;49.50;;;;;;4974805;28;20470;-74
2023/07/05 05:18:19;;;;;;;102.73;2.60;;;22.30;48.90;;;;;;4975327;28;20709;-73
2023/07/05 05:20:45;;;;;;;102.80;2.73;;;22.30;49.10;;;;;;4974485;28;20530;-74
2023/07/05 05:23:14;;;;;;;102.87;2.77;;;22.20;49.20;;;;;;4977749;28;20327;-74
2023/07/05 05:25:44;;;;;;;102.90;2.70;;;22.20;47.60;;;;;;4974847;28;20181;-73
2023/07/05 05:28:11;;;;;;;102.77;2.73;;;22.20;48.80;;;;;;4975122;28;20446;-74
2023/07/05 05:30:38;;;;;;;102.77;3.03;;;22.60;45.40;;;;;;4974004;28;20469;-73
2023/07/05 05:33:04;;;;;;;103.13;2.80;;;22.50;47.10;;;;;;4975674;28;20494;-73
2023/07/05 05:35:31;;;;;;;102.80;2.70;;;22.50;48.90;;;;;;4975071;28;20449;-73
2023/07/05 05:37:57;;;;;;;102.97;2.90;;;22.50;49.50;;;;;;4984771;28;20409;-73
2023/07/05 05:40:22;;;;;;;102.80;2.90;;;22.70;44.20;;;;;;4994342;28;20482;-73
2023/07/05 05:42:48;;;;;;;102.70;2.77;;;20.50;42.10;;;;;;4995005;28;20171;-73
2023/07/05 05:45:14;;;;;;;103.00;2.93;;;23.10;43.40;;;;;;4994075;28;20657;-73
2023/07/05 05:47:39;;;;;;;102.77;2.80;;;22.90;46.40;;;;;;4994639;28;20189;-73
2023/07/05 05:50:06;;;;;;;102.87;2.80;;;23.00;43.80;;;;;;4974772;28;20201;-74
2023/07/05 05:52:32;;;;;;;103.27;3.00;;;23.00;44.40;;;;;;4974695;28;20425;-73
2023/07/05 05:54:58;;;;;;;102.80;2.67;;;23.10;41.00;;;;;;4976956;28;20418;-73
2023/07/05 05:57:24;;;;;;;102.83;2.87;;;23.30;41.10;;;;;;4974507;28;20465;-73
2023/07/05 05:59:49;;;;;;;102.70;2.80;;;23.30;39.70;;;;;;4974292;28;20207;-73
2023/07/05 06:02:16;;;;;;;102.77;2.87;;;23.50;38.00;;;;;;4975051;28;20269;-73
2023/07/05 06:04:41;;;;;;;102.60;2.73;;;23.60;39.20;;;;;;4974298;28;20195;-73
2023/07/05 06:07:07;;;;;;;102.50;2.50;;;23.30;38.10;;;;;;4974738;28;20468;-73
2023/07/05 06:09:43;;;;;;;102.37;2.47;;;23.60;37.70;;;;;;4974631;28;20468;-73
2023/07/05 06:12:08;;;;;;;102.17;2.70;;;23.70;36.00;;;;;;4974754;28;20714;-73
2023/07/05 06:14:34;;;;;;;102.37;2.83;;;23.40;39.30;;;;;;4974071;28;20421;-73
2023/07/05 06:16:59;;;;;;;101.87;2.37;;;23.70;37.10;;;;;;4974272;28;20680;-73
2023/07/05 06:19:25;;;;;;;102.20;2.77;;;23.50;37.10;;;;;;4974585;28;20247;-73
2023/07/05 06:21:50;;;;;;;103.50;3.20;;;23.40;36.70;;;;;;4974310;28;20540;-74
2023/07/05 06:24:16;;;;;;;102.27;2.80;;;23.40;36.40;;;;;;4974828;28;20177;-74
2023/07/05 06:26:42;;;;;;;102.37;2.80;;;23.40;36.70;;;;;;4974087;28;20184;-74
2023/07/05 06:29:07;;;;;;;102.27;2.60;;;23.70;36.40;;;;;;4983576;28;20570;-75
2023/07/05 06:31:33;;;;;;;101.77;2.83;;;23.50;35.00;;;;;;4993893;28;20188;-73
2023/07/05 06:34:01;;;;;;;101.37;2.57;;;23.10;36.20;;;;;;4993727;28;20658;-73
2023/07/05 06:36:27;;;;;;;101.03;2.50;;;23.40;35.70;;;;;;4992943;28;20696;-74
2023/07/05 06:38:52;;;;;;;101.30;3.00;;;23.30;34.70;;;;;;5013429;23;20507;-84
2023/07/05 06:41:18;;;;;;;100.87;2.43;;;23.40;34.80;;;;;;4986734;28;20218;-79
2023/07/05 06:43:44;;;;;;;100.77;2.50;;;23.20;36.20;;;;;;4992694;28;20208;-79
2023/07/05 06:46:10;;;;;;;100.47;2.30;;;22.90;36.10;;;;;;4993572;28;20177;-78
2023/07/05 06:48:35;;;;;;;100.50;2.50;;;22.80;37.30;;;;;;4993568;28;20177;-79
2023/07/05 06:51:01;;;;;;;100.33;2.50;;;22.50;38.00;;;;;;4993317;28;20183;-79
2023/07/05 06:53:27;;;;;;;99.97;2.50;;;23.10;37.70;;;;;;4993677;28;20236;-78
2023/07/05 06:55:52;;;;;;;100.50;3.00;;;23.20;36.90;;;;;;4993716;28;20193;-78
2023/07/05 06:58:22;;;;;;;100.00;2.47;;;23.50;35.70;;;;;;4993316;28;20500;-78
2023/07/05 07:00:49;;;;;;;99.93;2.60;;;23.20;36.00;;;;;;4993741;28;20204;-80
2023/07/05 07:03:15;;;;;;;99.57;2.27;;;23.00;37.90;;;;;;4993493;28;20421;-78
2023/07/05 07:05:41;;;;;;;99.80;2.33;;;22.70;39.70;;;;;;4993088;28;20900;-78
2023/07/05 07:08:06;;;;;;;100.23;2.73;;;22.50;43.30;;;;;;4993170;28;20466;-78
2023/07/05 07:10:35;;;;;;;99.80;2.50;;;21.90;50.90;;;;;;4992849;28;20201;-79
2023/07/05 07:13:02;;;;;;;99.90;2.60;;;21.30;59.90;;;;;;4993406;28;20637;-79
2023/07/05 07:15:28;;;;;;;100.50;2.67;;;21.20;65.50;;;;;;4992720;28;20497;-79
2023/07/05 07:17:53;;;;;;;100.33;2.70;;;20.40;73.50;;;;;;4994133;28;20426;-79
2023/07/05 07:20:19;;;;;;;100.60;2.60;;;20.10;79.80;;;;;;4996785;28;20193;-78
2023/07/05 07:22:45;;;;;;;100.77;2.60;;;20.20;81.40;;;;;;4991466;28;20169;-79
2023/07/05 07:25:10;;;;;;;100.87;2.80;;;20.30;77.50;;;;;;4992672;28;20184;-79
2023/07/05 07:27:36;;;;;;;100.97;2.90;;;20.30;75.30;;;;;;4993061;28;20179;-79
2023/07/05 07:30:02;;;;;;;101.00;2.70;;;20.50;71.10;;;;;;4991898;28;20205;-79
2023/07/05 07:32:28;;;;;;;102.00;2.90;;;20.80;70.20;;;;;;4993040;28;20174;-80
2023/07/05 07:34:54;;;;;;;101.37;2.70;;;21.40;64.00;;;;;;4992688;28;20425;-79
2023/07/05 07:37:20;;;;;;;101.40;2.70;;;21.40;64.80;;;;;;4992748;28;20227;-79
2023/07/05 07:39:46;;;;;;;101.40;2.60;;;20.90;68.50;;;;;;4992404;28;20484;-80
2023/07/05 07:42:11;;;;;;;101.80;2.77;;;20.70;73.20;;;;;;4992574;28;20792;-79
2023/07/05 07:44:37;;;;;;;101.77;2.60;;;20.70;73.80;;;;;;4992666;28;20177;-78
2023/07/05 07:47:03;;;;;;;102.00;2.60;;;19.80;73.00;;;;;;4992333;28;20187;-79
2023/07/05 07:49:29;;;;;;;102.37;2.70;;;18.50;80.80;;;;;;4992462;28;20230;-79
2023/07/05 07:51:55;;;;;;;102.67;3.00;;;18.30;86.20;;;;;;4992155;28;20452;-79
2023/07/05 07:54:26;;;;;;;102.37;2.57;;;18.40;82.10;;;;;;4992367;28;20180;-77
2023/07/05 07:56:53;;;;;;;102.67;2.70;;;18.50;79.50;;;;;;4992096;28;20556;-78
2023/07/05 07:59:19;;;;;;;102.77;2.80;;;18.50;84.80;;;;;;4992169;28;20959;-78
2023/07/05 08:01:45;;;;;;;102.80;2.77;;;18.60;80.40;;;;;;4992142;28;20413;-81
2023/07/05 08:04:12;;;;;;;102.87;2.80;;;18.80;80.90;;;;;;4992053;28;20170;-79
2023/07/05 08:06:41;;;;;;;102.57;2.40;;;19.40;74.10;;;;;;4990706;28;20429;-78
2023/07/05 08:09:10;;;;;;;102.80;2.60;;;19.60;72.80;;;;;;4991145;28;20436;-78
2023/07/05 08:11:36;;;;;;;102.90;2.60;;;20.10;69.00;;;;;;4992188;28;20414;-78
2023/07/05 08:14:02;;;;;;;102.97;2.80;;;20.30;65.40;;;;;;4992174;28;20407;-78
2023/07/05 08:16:27;;;;;;;103.20;2.80;;;20.00;67.00;;;;;;4992001;28;20464;-79
2023/07/05 08:18:53;;;;;;;103.37;3.00;;;20.40;63.80;;;;;;4991789;28;20515;-79
2023/07/05 08:21:19;;;;;;;103.37;3.10;;;20.70;61.90;;;;;;4992069;28;20653;-80
2023/07/05 08:23:45;;;;;;;104.20;3.27;;;20.90;62.90;;;;;;4991813;28;20644;-78
2023/07/05 08:26:15;;;;;;;103.40;2.83;;;20.20;63.20;;;;;;4991767;28;20235;-78
2023/07/05 08:28:41;;;;;;;103.27;2.80;;;19.20;69.70;;;;;;4990781;28;20418;-78
2023/07/05 08:31:07;;;;;;;103.50;2.97;;;19.20;71.30;;;;;;4991726;28;20423;-78
2023/07/05 08:33:36;;;;;;;103.47;2.70;;;19.20;76.00;;;;;;4992246;28;20667;-79
2023/07/05 08:36:04;;;;;;;103.50;2.90;;;19.30;77.80;;;;;;4991512;28;20456;-80
2023/07/05 08:38:30;;;;;;;103.47;2.80;;;20.20;73.00;;;;;;4990710;28;20950;-80
2023/07/05 08:41:09;;;;;;;103.37;2.80;;;20.50;63.10;;;;;;4991662;28;20511;-78
2023/07/05 08:43:50;;;;;;;103.27;2.77;;;20.70;63.60;;;;;;4991970;28;20420;-79
2023/07/05 08:46:16;;;;;;;103.47;2.93;;;20.90;60.20;;;;;;4992018;28;20385;-81
2023/07/05 08:48:44;;;;;;;103.00;2.40;;;20.70;60.80;;;;;;4992247;28;20979;-78
2023/07/05 08:51:12;;;;;;;103.47;2.97;;;19.90;66.50;;;;;;4991572;28;20520;-78
2023/07/05 08:53:47;;;;;;;103.97;3.20;;;20.30;65.50;;;;;;4991881;28;20419;-79
2023/07/05 08:56:21;;;;;;;103.17;2.70;;;20.80;60.60;;;;;;4991453;28;20950;-77
2023/07/05 08:58:56;;;;;;;103.50;2.87;;;20.50;66.50;;;;;;4991584;28;20404;-78
2023/07/05 09:01:28;;;;;;;103.33;2.63;;;20.80;60.90;;;;;;4990433;28;20425;-78
2023/07/05 09:03:56;;;;;;;103.60;2.80;;;20.60;61.80;;;;;;4991451;28;20531;-78
2023/07/05 09:06:27;;;;;;;103.87;2.93;;;20.60;61.80;;;;;;4991371;28;20472;-78
2023/07/05 09:09:01;;;;;;;103.77;2.90;;;20.40;62.00;;;;;;4990476;28;20443;-78
2023/07/05 09:11:42;;;;;;;103.53;2.73;;;20.60;63.20;;;;;;4991559;28;20853;-78
2023/07/05 09:14:34;;;;;;;103.47;2.80;;;20.10;68.50;;;;;;4991526;28;20406;-78
2023/07/05 09:17:07;;;;;;;103.10;2.57;;;20.70;66.50;;;;;;4991149;28;20456;-78
2023/07/05 09:19:35;;;;;;;103.57;2.80;;;21.20;55.70;;;;;;4991475;28;20877;-78
2023/07/05 09:22:06;;;;;;;103.37;2.70;;;21.30;60.80;;;;;;4994697;28;20493;-78
2023/07/05 09:24:35;;;;;;;103.67;3.00;;;21.30;59.10;;;;;;4994925;28;21084;-78
2023/07/05 09:27:19;;;;;;;103.47;2.77;;;21.50;64.10;;;;;;4994665;28;20442;-79
2023/07/05 09:30:10;;;;;;;104.30;3.03;;;21.50;54.50;;;;;;4995131;28;20432;-78
2023/07/05 09:32:41;;;;;;;104.30;3.07;;;21.70;54.90;;;;;;4994967;28;20442;-78
2023/07/05 09:35:21;;;;;;;103.13;2.80;;;21.60;54.50;;;;;;4994472;28;20468;-78
2023/07/05 09:38:09;;;;;;;103.27;2.70;;;21.70;54.50;;;;;;4994623;28;20418;-78
2023/07/05 09:40:59;;;;;;;104.53;3.00;;;22.00;53.60;;;;;;4990851;28;20497;-81
2023/07/05 09:43:29;;;;;;;103.40;2.77;;;22.10;55.10;;;;;;4994713;28;20507;-80
2023/07/05 09:45:55;;;;;;;103.27;2.67;;;22.20;52.70;;;;;;4994391;28;20416;-79
2023/07/05 09:48:21;;;;;;;103.50;2.80;;;22.30;50.30;;;;;;4994437;28;20920;-79
2023/07/05 09:50:52;;;;;;;103.50;2.80;;;22.10;50.80;;;;;;4994449;28;20427;-77
2023/07/05 09:53:49;;;;;;;103.60;2.90;;;21.20;51.70;;;;;;4994515;28;20531;-78
2023/07/05 09:56:27;;;;;;;103.30;2.50;;;20.50;57.40;;;;;;4994915;28;20496;-80
2023/07/05 09:59:13;;;;;;;103.57;2.80;;;20.90;58.70;;;;;;4994613;28;20439;-78
2023/07/05 10:01:41;;;;;;;103.50;2.90;;;21.40;57.30;;;;;;4994700;28;20788;-83
2023/07/05 10:04:08;;;;;;;103.40;2.67;;;22.20;53.30;;;;;;4994602;28;20410;-79
2023/07/05 10:06:38;;;;;;;103.43;2.70;;;22.60;49.90;;;;;;4995286;28;20794;-83
2023/07/05 10:09:19;;;;;;;103.30;2.70;;;22.70;47.00;;;;;;4994727;28;20461;-79
2023/07/05 10:11:48;;;;;;;103.20;2.70;;;21.10;52.10;;;;;;4995927;28;20425;-80
2023/07/05 10:14:17;;;;;;;103.27;2.73;;;20.70;57.20;;;;;;5003880;28;20444;-84
2023/07/05 10:16:54;;;;;;;103.17;2.77;;;21.50;54.60;;;;;;5001173;28;20464;-85
2023/07/05 10:19:31;;;;;;;102.57;2.40;;;21.30;49.90;;;;;;4999441;28;20426;-81
2023/07/05 10:22:30;;;;;;;102.97;2.50;;;21.80;46.90;;;;;;4994606;28;20757;-79
2023/07/05 10:24:58;;;;;;;102.70;2.60;;;22.30;46.50;;;;;;4994209;28;20592;-79
2023/07/05 10:27:28;;;;;;;102.77;2.73;;;22.10;45.50;;;;;;4994479;28;20492;-79
2023/07/05 10:30:20;;;;;;;102.63;2.60;;;22.40;45.80;;;;;;4994187;28;20922;-81
2023/07/05 10:33:20;;;;;;;102.70;2.80;;;22.90;40.50;;;;;;4992241;28;20440;-84
2023/07/05 10:36:04;;;;;;;102.00;2.50;;;21.80;43.30;;;;;;4993736;28;20981;-78
2023/07/05 10:38:30;;;;;;;102.57;2.97;;;21.00;48.00;;;;;;4994132;28;20420;-79
2023/07/05 10:41:00;;;;;;;102.10;2.60;;;21.60;47.20;;;;;;4992524;28;20442;-78
2023/07/05 10:43:29;;;;;;;102.10;2.70;;;21.60;47.20;;;;;;4993884;28;20160;-78
2023/07/05 10:45:55;;;;;;;101.93;2.80;;;22.00;43.00;;;;;;4993660;28;20421;-78
2023/07/05 10:48:32;;;;;;;103.93;2.80;;;22.00;41.60;;;;;;4992770;28;20414;-79
2023/07/05 10:50:59;;;;;;;101.97;2.60;;;22.00;43.50;;;;;;4994187;28;20663;-78
2023/07/05 10:53:26;;;;;;;102.10;2.87;;;21.50;43.10;;;;;;4993865;28;20415;-79
2023/07/05 10:56:01;;;;;;;101.40;2.60;;;22.00;43.40;;;;;;4993042;28;20450;-79
2023/07/05 10:58:43;;;;;;;101.60;2.80;;;22.40;43.10;;;;;;4994983;28;20404;-79
2023/07/05 11:01:32;;;;;;;101.57;2.70;;;23.50;38.80;;;;;;4994193;28;20432;-82
2023/07/05 11:04:06;;;;;;;101.57;2.80;;;22.70;40.80;;;;;;4994364;28;20412;-78
2023/07/05 11:06:35;;;;;;;101.37;2.47;;;22.30;40.10;;;;;;4995099;28;20412;-78
2023/07/05 11:09:02;;;;;;;101.00;2.50;;;22.40;38.60;;;;;;4993342;28;20432;-79
2023/07/05 11:11:32;;;;;;;100.90;2.60;;;22.50;40.10;;;;;;4994107;28;20947;-77
2023/07/05 11:14:04;;;;;;;101.10;2.63;;;22.30;38.80;;;;;;4993291;28;20475;-79
2023/07/05 11:16:32;;;;;;;100.70;2.67;;;22.50;40.20;;;;;;4992904;28;20904;-78
2023/07/05 11:19:04;;;;;;;100.53;2.40;;;23.10;38.00;;;;;;4992973;28;20425;-78
2023/07/05 11:21:47;;;;;;;100.27;2.40;;;23.30;36.00;;;;;;4993292;28;20413;-79
2023/07/05 11:24:39;;;;;;;100.50;2.60;;;23.00;35.50;;;;;;4992912;28;20448;-79
2023/07/05 11:27:41;;;;;;;100.87;2.73;;;22.70;33.90;;;;;;4990158;28;20420;-78
2023/07/05 11:30:37;;;;;;;99.50;2.60;;;22.90;34.90;;;;;;4970953;28;20988;-78
2023/07/05 11:33:02;;;;;;;99.13;2.53;;;22.50;35.10;;;;;;4971119;28;20513;-79
2023/07/05 11:36:24;;;;;;;99.47;2.70;;;22.90;33.90;;;;;;4954496;28;20557;-78
2023/07/05 11:38:57;;;;;;;99.00;2.20;;;23.50;30.60;;;;;;4913250;29;20271;-79
2023/07/05 11:41:23;;;;;;;99.37;2.50;;;24.20;28.80;;;;;;4913987;29;20452;-79
2023/07/05 11:43:56;;;;;;;99.07;2.43;;;24.40;26.00;;;;;;4913412;29;20451;-80
2023/07/05 11:46:37;;;;;;;98.47;2.40;;;25.20;23.20;;;;;;4913955;29;20185;-82
2023/07/05 11:49:20;;;;;;;99.03;2.50;;;25.90;23.60;;;;;;4913644;29;20444;-78
2023/07/05 11:51:51;;;;;;;97.60;2.40;;;25.30;22.70;;;;;;4913593;29;20511;-78
2023/07/05 11:54:19;;;;;;;96.77;2.10;;;25.60;22.30;;;;;;4913512;29;20432;-79
2023/07/05 11:56:46;;;;;;;97.07;2.70;;;26.70;21.30;;;;;;4914332;29;20983;-79
2023/07/05 11:59:17;;;;;;;96.30;2.20;;;27.70;19.20;;;;;;4913475;29;20441;-78
2023/07/05 12:01:43;;;;;;;95.47;2.10;;;27.40;18.30;;;;;;4913271;29;20425;-79
2023/07/05 12:04:17;;;;;;;94.40;1.80;;;27.60;18.60;;;;;;4923575;29;20494;-79
2023/07/05 12:06:44;;;;;;;93.87;2.00;;;27.00;19.30;;;;;;4932231;29;20474;-78
2023/07/05 12:09:27;;;;;;;93.90;2.20;;;26.80;20.40;;;;;;4932605;29;20440;-81
2023/07/05 12:11:56;;;;;;;93.10;2.10;;;27.10;18.60;;;;;;4931878;29;20847;-81
2023/07/05 12:14:22;;;;;;;92.90;2.00;;;27.60;19.70;;;;;;4970696;28;20429;-78
2023/07/05 12:16:47;;;;;;;92.30;2.00;;;26.40;16.60;;;;;;4992238;28;20547;-78
2023/07/05 12:19:27;;;;;;;92.87;2.13;;;26.00;17.50;;;;;;4992292;28;20222;-79
2023/07/05 12:22:06;;;;;;;91.87;2.00;;;25.80;16.40;;;;;;4990959;28;20207;-77
2023/07/05 12:24:40;;;;;;;91.40;1.87;;;25.40;17.10;;;;;;4992448;28;20424;-79
2023/07/05 12:27:27;;;;;;;91.37;2.00;;;26.60;17.80;;;;;;4992842;28;20400;-79
2023/07/05 12:29:56;;;;;;;91.20;1.90;;;28.50;14.20;;;;;;4993145;28;20493;-81
2023/07/05 12:32:26;;;;;;;91.00;1.90;;;28.20;14.10;;;;;;4993333;28;20408;-77
2023/07/05 12:35:11;;;;;;;90.77;2.00;;;28.00;13.80;;;;;;4992140;28;20397;-79
2023/07/05 12:37:37;;;;;;;89.70;1.90;;;27.10;15.20;;;;;;4992316;28;20474;-78
2023/07/05 12:40:16;;;;;;;89.30;1.70;;;27.30;15.30;;;;;;4992074;28;20956;-79
2023/07/05 12:42:52;;;;;;;88.97;1.80;;;27.60;14.30;;;;;;4992284;28;20176;-77
2023/07/05 12:45:25;;;;;;;89.37;1.90;;;26.90;13.50;;;;;;4992051;28;20543;-78